Time;durP1;ratioP1;P1;durP2;ratioP2;P2;SDS_P1;SDS_P2;PMS_P1;PMS_P2;Temp;Humidity;BMP_temperature;BMP_pressure;BME280_temperature;BME280_humidity;BME280_pressure;Samples;Min_cycle;Max_cycle;Signal;HPM_P1;HPM_P2
2021/01/08 00:00:17;;;;;;;115.65;16.00;;;0.50;98.80;;;;;;5080942;28;20048;-67
2021/01/08 00:02:42;;;;;;;138.43;16.00;;;0.50;98.80;;;;;;5074102;28;20020;-67
2021/01/08 00:05:09;;;;;;;97.53;14.38;;;0.50;98.80;;;;;;5077278;28;20496;-67
2021/01/08 00:07:36;;;;;;;120.60;17.25;;;0.50;98.80;;;;;;5076867;28;20017;-67
2021/01/08 00:10:03;;;;;;;154.35;18.23;;;0.50;98.80;;;;;;5080649;28;20031;-67
2021/01/08 00:12:32;;;;;;;97.75;16.83;;;0.50;98.80;;;;;;5076045;28;20024;-67
2021/01/08 00:14:58;;;;;;;111.22;17.23;;;0.50;98.80;;;;;;5081364;28;20059;-67
2021/01/08 00:17:27;;;;;;;175.18;18.58;;;0.60;98.80;;;;;;5077033;28;20052;-68
2021/01/08 00:19:53;;;;;;;136.77;16.63;;;0.60;98.80;;;;;;5086432;28;20028;-68
2021/01/08 00:22:19;;;;;;;166.85;18.88;;;0.60;98.80;;;;;;5076832;28;20087;-67
2021/01/08 00:24:46;;;;;;;146.52;17.30;;;0.60;98.80;;;;;;5071952;22;20052;-66
2021/01/08 00:27:12;;;;;;;137.52;16.17;;;0.60;98.80;;;;;;5032237;28;20052;-68
2021/01/08 00:29:37;;;;;;;132.02;17.70;;;0.60;98.80;;;;;;5042267;28;20104;-67
2021/01/08 00:32:03;;;;;;;134.75;17.55;;;0.60;98.80;;;;;;5039441;28;20041;-68
2021/01/08 00:34:29;;;;;;;150.15;17.85;;;0.60;98.80;;;;;;5047282;28;20033;-66
2021/01/08 00:36:56;;;;;;;145.23;16.50;;;0.60;98.80;;;;;;5040425;28;20436;-67
2021/01/08 00:39:22;;;;;;;123.45;15.40;;;0.60;98.80;;;;;;5041368;28;20102;-67
2021/01/08 00:41:48;;;;;;;115.63;16.90;;;0.60;98.80;;;;;;5038575;28;20039;-66
2021/01/08 00:44:15;;;;;;;126.90;15.80;;;0.60;98.80;;;;;;5040810;28;20017;-67
2021/01/08 00:46:47;;;;;;;123.45;15.90;;;0.60;98.80;;;;;;5043194;28;20047;-67
2021/01/08 00:49:14;;;;;;;101.85;15.63;;;0.70;98.80;;;;;;5039377;28;20021;-66
2021/01/08 00:51:41;;;;;;;143.68;17.02;;;0.70;98.80;;;;;;5033242;28;20103;-67
2021/01/08 00:54:07;;;;;;;78.75;13.65;;;0.60;98.80;;;;;;5043199;28;20025;-68
2021/01/08 00:56:33;;;;;;;105.10;15.27;;;0.60;98.80;;;;;;5041725;28;20108;-66
2021/01/08 00:58:59;;;;;;;105.93;15.77;;;0.70;98.80;;;;;;5037436;28;20037;-68
2021/01/08 01:01:25;;;;;;;84.25;13.20;;;0.60;98.80;;;;;;5023996;28;20113;-66
2021/01/08 01:03:51;;;;;;;85.15;13.93;;;0.60;98.80;;;;;;5043367;28;20090;-67
2021/01/08 01:06:32;;;;;;;95.38;13.55;;;0.60;98.80;;;;;;5040924;28;20525;-66
2021/01/08 01:08:59;;;;;;;73.57;13.20;;;0.60;98.80;;;;;;5041165;28;20025;-67
2021/01/08 01:11:26;;;;;;;72.63;14.43;;;0.60;98.80;;;;;;5032442;28;20509;-68
2021/01/08 01:13:56;;;;;;;68.13;14.85;;;0.60;98.80;;;;;;5043557;28;20033;-66
2021/01/08 01:16:26;;;;;;;85.88;13.48;;;0.70;98.80;;;;;;5038975;28;20595;-68
2021/01/08 01:18:54;;;;;;;92.50;14.38;;;0.60;98.80;;;;;;5023456;28;20094;-67
2021/01/08 01:21:20;;;;;;;96.85;13.32;;;0.70;98.80;;;;;;5043022;28;20021;-66
2021/01/08 01:23:45;;;;;;;67.70;13.25;;;0.70;98.80;;;;;;5043594;28;20106;-67
2021/01/08 01:26:12;;;;;;;60.60;12.10;;;0.70;98.80;;;;;;5043662;28;20055;-67
2021/01/08 01:28:38;;;;;;;49.15;11.05;;;0.60;98.80;;;;;;5040618;28;20478;-67
2021/01/08 01:31:04;;;;;;;45.08;12.02;;;0.60;98.80;;;;;;5037016;28;20398;-67
2021/01/08 01:33:30;;;;;;;31.02;10.52;;;0.60;98.80;;;;;;5038822;28;20100;-66
2021/01/08 01:35:56;;;;;;;34.72;9.65;;;0.60;98.80;;;;;;5044516;28;20108;-67
2021/01/08 01:38:22;;;;;;;30.23;9.48;;;0.60;98.80;;;;;;5039302;28;20050;-68
2021/01/08 01:40:48;;;;;;;36.75;9.70;;;0.50;98.80;;;;;;5023893;28;20350;-67
2021/01/08 01:43:15;;;;;;;26.60;8.75;;;0.60;98.80;;;;;;5045684;28;20175;-67
2021/01/08 01:45:40;;;;;;;27.02;9.02;;;0.60;98.80;;;;;;5048660;28;20091;-66
2021/01/08 01:48:07;;;;;;;27.05;8.70;;;0.60;98.80;;;;;;5044848;28;20025;-68
2021/01/08 01:50:33;;;;;;;31.70;9.57;;;0.60;98.80;;;;;;5025851;28;20142;-66
2021/01/08 01:52:59;;;;;;;25.10;8.93;;;0.50;98.80;;;;;;5051873;28;20163;-67
2021/01/08 01:55:26;;;;;;;25.67;8.48;;;0.50;98.80;;;;;;5046499;28;20272;-67
2021/01/08 01:57:52;;;;;;;28.13;9.18;;;0.50;98.80;;;;;;5036907;28;20030;-69
2021/01/08 02:00:19;;;;;;;27.10;8.55;;;0.50;98.80;;;;;;5036295;28;20052;-68
2021/01/08 02:02:57;;;;;;;23.75;8.77;;;0.50;98.80;;;;;;5039617;28;20029;-66
2021/01/08 02:05:25;;;;;;;25.30;9.10;;;0.50;98.80;;;;;;5047356;28;20492;-67
2021/01/08 02:08:00;;;;;;;22.05;8.45;;;0.60;98.80;;;;;;5026700;28;20025;-68
2021/01/08 02:10:36;;;;;;;20.17;8.23;;;0.60;98.80;;;;;;5043805;28;20021;-67
2021/01/08 02:13:02;;;;;;;23.52;9.02;;;0.50;98.80;;;;;;5045788;28;20041;-68
2021/01/08 02:15:29;;;;;;;18.00;8.05;;;0.60;98.80;;;;;;5044440;28;20055;-67
2021/01/08 02:17:55;;;;;;;18.83;7.63;;;0.60;98.80;;;;;;5041408;28;20032;-67
2021/01/08 02:20:22;;;;;;;18.67;8.00;;;0.60;98.80;;;;;;5042194;28;20029;-66
2021/01/08 02:23:17;;;;;;;23.02;8.40;;;0.60;98.80;;;;;;5045371;28;20108;-68
2021/01/08 02:25:44;;;;;;;18.10;7.40;;;0.70;98.80;;;;;;5054640;28;20115;-66
2021/01/08 02:28:26;;;;;;;16.63;7.60;;;0.70;98.80;;;;;;5052893;28;20032;-68
2021/01/08 02:30:53;;;;;;;17.60;7.63;;;0.70;98.80;;;;;;5046087;28;20029;-67
2021/01/08 02:33:20;;;;;;;15.10;6.68;;;0.70;98.80;;;;;;5044899;28;20025;-67
2021/01/08 02:35:49;;;;;;;21.52;7.95;;;0.60;98.80;;;;;;5046035;28;20104;-66
2021/01/08 02:38:20;;;;;;;19.23;7.57;;;0.60;98.70;;;;;;5044613;28;20145;-70
2021/01/08 02:40:48;;;;;;;16.83;7.82;;;0.70;98.80;;;;;;5041136;28;20037;-66
2021/01/08 02:43:18;;;;;;;17.08;8.25;;;0.70;98.80;;;;;;5037929;28;20017;-67
2021/01/08 02:45:44;;;;;;;19.27;7.88;;;0.60;98.70;;;;;;5038067;28;20243;-67
2021/01/08 02:48:11;;;;;;;18.95;8.57;;;0.60;98.70;;;;;;5042906;28;20103;-69
2021/01/08 02:50:36;;;;;;;18.85;8.00;;;0.60;98.70;;;;;;5033868;28;20435;-67
2021/01/08 02:53:06;;;;;;;18.25;8.32;;;0.60;98.70;;;;;;5033042;28;20021;-66
2021/01/08 02:55:34;;;;;;;20.15;9.20;;;0.60;98.70;;;;;;5045849;28;20029;-67
2021/01/08 02:58:02;;;;;;;18.48;8.27;;;0.50;98.70;;;;;;5045740;28;20033;-67
2021/01/08 03:00:33;;;;;;;23.95;9.15;;;0.60;98.70;;;;;;5045012;28;20021;-67
2021/01/08 03:03:00;;;;;;;18.10;8.48;;;0.50;98.70;;;;;;5044132;28;20043;-67
2021/01/08 03:05:27;;;;;;;19.70;9.18;;;0.50;98.70;;;;;;5045350;28;20049;-68
2021/01/08 03:07:54;;;;;;;21.00;9.13;;;0.50;98.70;;;;;;5044613;28;20017;-67
2021/01/08 03:10:19;;;;;;;20.67;8.55;;;0.50;98.70;;;;;;5044683;28;20179;-66
2021/01/08 03:13:00;;;;;;;19.55;8.32;;;0.40;98.60;;;;;;5044760;28;20401;-67
2021/01/08 03:15:26;;;;;;;20.92;8.50;;;0.40;98.70;;;;;;5045423;28;20043;-66
2021/01/08 03:17:51;;;;;;;19.73;8.68;;;0.40;98.70;;;;;;5044309;28;20029;-67
2021/01/08 03:20:17;;;;;;;20.15;9.13;;;0.40;98.70;;;;;;5045951;28;20477;-67
2021/01/08 03:22:43;;;;;;;23.08;9.23;;;0.40;98.70;;;;;;5044406;28;20398;-67
2021/01/08 03:25:09;;;;;;;20.58;9.20;;;0.40;98.70;;;;;;5042765;28;20525;-67
2021/01/08 03:27:35;;;;;;;21.20;9.70;;;0.40;98.70;;;;;;5035822;28;20325;-68
2021/01/08 03:30:01;;;;;;;22.23;9.27;;;0.40;98.70;;;;;;5044832;28;20107;-67
2021/01/08 03:32:26;;;;;;;22.83;9.10;;;0.40;98.70;;;;;;5027038;28;20397;-67
2021/01/08 03:34:52;;;;;;;20.73;9.75;;;0.40;98.60;;;;;;5036953;28;20033;-67
2021/01/08 03:37:17;;;;;;;25.63;9.75;;;0.40;98.70;;;;;;5027250;28;20047;-68
2021/01/08 03:39:43;;;;;;;22.63;8.95;;;0.40;98.70;;;;;;5013273;28;20519;-66
2021/01/08 03:42:09;;;;;;;22.27;9.30;;;0.40;98.60;;;;;;5045183;28;20026;-67
2021/01/08 03:44:34;;;;;;;22.65;9.20;;;0.40;98.60;;;;;;5044445;28;20035;-68
2021/01/08 03:47:00;;;;;;;18.55;8.98;;;0.40;98.60;;;;;;5045273;28;20025;-67
2021/01/08 03:49:25;;;;;;;24.83;9.88;;;0.40;98.60;;;;;;5043962;28;20483;-68
2021/01/08 03:51:51;;;;;;;22.95;10.27;;;0.30;98.60;;;;;;5028745;28;20029;-67
2021/01/08 03:54:16;;;;;;;23.92;9.70;;;0.30;98.60;;;;;;5033139;28;20181;-68
2021/01/08 03:56:42;;;;;;;23.42;9.43;;;0.30;98.60;;;;;;5040863;28;20523;-67
2021/01/08 03:59:08;;;;;;;24.00;10.05;;;0.30;98.60;;;;;;5024676;28;20111;-67
2021/01/08 04:01:33;;;;;;;27.02;10.63;;;0.30;98.60;;;;;;5045993;28;20021;-66
2021/01/08 04:03:59;;;;;;;20.65;9.55;;;0.30;98.60;;;;;;5048432;28;20067;-68
2021/01/08 04:06:24;;;;;;;23.50;9.23;;;0.30;98.60;;;;;;5049642;28;20044;-66
2021/01/08 04:08:50;;;;;;;19.88;8.90;;;0.30;98.60;;;;;;5046844;28;20099;-68
2021/01/08 04:11:15;;;;;;;19.35;8.70;;;0.30;98.60;;;;;;5048428;28;20025;-67
2021/01/08 04:13:41;;;;;;;24.10;9.10;;;0.30;98.60;;;;;;5041902;28;20139;-67
2021/01/08 04:16:07;;;;;;;28.45;10.27;;;0.30;98.60;;;;;;5039646;28;20032;-67
2021/01/08 04:18:33;;;;;;;24.25;9.82;;;0.30;98.60;;;;;;5047070;28;20115;-67
2021/01/08 04:20:58;;;;;;;24.88;9.45;;;0.30;98.60;;;;;;5048624;28;20454;-69
2021/01/08 04:23:24;;;;;;;22.02;9.18;;;0.30;98.60;;;;;;5047735;28;20033;-66
2021/01/08 04:25:50;;;;;;;29.23;9.45;;;0.30;98.60;;;;;;5048602;28;20021;-67
2021/01/08 04:28:15;;;;;;;29.95;10.20;;;0.20;98.60;;;;;;5045565;28;20485;-67
2021/01/08 04:30:41;;;;;;;25.67;10.27;;;0.30;98.60;;;;;;5048490;28;20040;-68
2021/01/08 04:33:06;;;;;;;23.52;9.18;;;0.30;98.60;;;;;;5047463;28;20032;-67
2021/01/08 04:35:32;;;;;;;28.92;10.75;;;0.30;98.60;;;;;;5047865;28;20455;-66
2021/01/08 04:37:58;;;;;;;33.58;11.00;;;0.20;98.60;;;;;;5046669;28;20031;-67
2021/01/08 04:40:23;;;;;;;31.88;11.05;;;0.30;98.60;;;;;;5039846;28;20170;-66
2021/01/08 04:42:49;;;;;;;31.13;10.93;;;0.20;98.60;;;;;;5031052;28;20017;-67
2021/01/08 04:45:15;;;;;;;31.17;10.75;;;0.20;98.60;;;;;;5048432;28;20074;-67
2021/01/08 04:47:43;;;;;;;30.70;10.70;;;0.20;98.60;;;;;;5052771;28;20073;-66
2021/01/08 04:50:09;;;;;;;35.50;11.07;;;0.20;98.60;;;;;;5038921;28;20010;-67
2021/01/08 04:52:36;;;;;;;31.73;11.40;;;0.20;98.60;;;;;;5043959;28;20036;-67
2021/01/08 04:55:02;;;;;;;30.63;11.25;;;0.20;98.60;;;;;;5020195;28;20041;-68
2021/01/08 04:57:30;;;;;;;32.90;10.93;;;0.20;98.60;;;;;;5028434;28;20071;-67
2021/01/08 04:59:57;;;;;;;35.92;11.13;;;0.10;98.60;;;;;;5046776;28;20033;-67
2021/01/08 05:02:22;;;;;;;34.47;12.10;;;0.20;98.60;;;;;;5046835;28;20029;-67
2021/01/08 05:04:48;;;;;;;37.42;12.30;;;0.20;98.60;;;;;;5045874;28;20024;-67
2021/01/08 05:07:14;;;;;;;37.75;11.40;;;0.20;98.60;;;;;;5046255;28;20075;-66
2021/01/08 05:09:39;;;;;;;40.85;11.88;;;0.20;98.60;;;;;;5044790;28;20098;-67
2021/01/08 05:12:05;;;;;;;36.85;11.00;;;0.30;98.70;;;;;;5048123;28;20025;-67
2021/01/08 05:14:32;;;;;;;39.05;11.80;;;0.30;98.70;;;;;;5046807;28;20024;-67
2021/01/08 05:16:58;;;;;;;48.22;12.45;;;0.20;98.70;;;;;;5047154;28;20167;-67
2021/01/08 05:19:24;;;;;;;38.85;11.65;;;0.30;98.70;;;;;;5045115;28;20115;-67
2021/01/08 05:21:53;;;;;;;40.70;11.48;;;0.30;98.70;;;;;;5047783;28;20021;-67
2021/01/08 05:24:23;;;;;;;38.00;10.93;;;0.30;98.70;;;;;;5045672;28;20056;-67
2021/01/08 05:26:48;;;;;;;41.15;11.00;;;0.30;98.70;;;;;;5028404;28;20056;-68
2021/01/08 05:29:14;;;;;;;55.88;12.20;;;0.30;98.70;;;;;;5046508;28;20044;-67
2021/01/08 05:31:40;;;;;;;46.40;11.80;;;0.30;98.70;;;;;;5047667;28;20029;-66
2021/01/08 05:34:06;;;;;;;59.30;13.75;;;0.30;98.60;;;;;;5028155;28;20041;-67
2021/01/08 05:36:31;;;;;;;44.13;12.27;;;0.30;98.70;;;;;;5046851;28;20539;-67
2021/01/08 05:38:59;;;;;;;36.65;11.02;;;0.30;98.70;;;;;;5043590;28;20025;-66
2021/01/08 05:41:26;;;;;;;41.55;10.68;;;0.30;98.70;;;;;;5034623;28;20027;-69
2021/01/08 05:43:53;;;;;;;48.92;11.63;;;0.30;98.70;;;;;;5041907;28;20104;-66
2021/01/08 05:46:21;;;;;;;44.63;12.13;;;0.40;98.70;;;;;;5040812;28;20092;-67
2021/01/08 05:48:53;;;;;;;45.40;11.27;;;0.30;98.70;;;;;;5045816;28;20047;-67
2021/01/08 05:51:21;;;;;;;44.85;10.90;;;0.40;98.70;;;;;;5046085;28;20108;-67
2021/01/08 05:53:48;;;;;;;41.65;11.27;;;0.30;98.70;;;;;;5045933;28;20029;-67
2021/01/08 05:56:15;;;;;;;44.30;11.05;;;0.30;98.60;;;;;;5041833;28;20466;-67
2021/01/08 05:58:42;;;;;;;34.40;10.80;;;0.40;98.60;;;;;;5045916;28;20275;-66
2021/01/08 06:01:07;;;;;;;33.97;10.35;;;0.40;98.60;;;;;;5043085;28;20029;-66
2021/01/08 06:03:33;;;;;;;37.15;10.13;;;0.40;98.60;;;;;;5046189;28;20338;-67
2021/01/08 06:06:01;;;;;;;36.35;11.57;;;0.40;98.60;;;;;;5047323;28;20093;-67
2021/01/08 06:08:47;;;;;;;34.58;10.93;;;0.30;98.60;;;;;;5044535;28;20077;-68
2021/01/08 06:11:20;;;;;;;33.20;10.43;;;0.30;98.60;;;;;;5046029;28;20373;-67
2021/01/08 06:13:53;;;;;;;36.50;10.82;;;0.30;98.60;;;;;;5043208;28;20021;-66
2021/01/08 06:16:20;;;;;;;32.08;10.65;;;0.30;98.60;;;;;;5043006;28;20120;-66
2021/01/08 06:18:48;;;;;;;38.53;10.15;;;0.30;98.60;;;;;;5026498;28;20025;-66
2021/01/08 06:21:15;;;;;;;35.63;10.40;;;0.40;98.60;;;;;;5041928;28;20041;-67
2021/01/08 06:26:19;;;;;;;35.88;11.57;;;0.30;98.50;;;;;;5076083;28;20052;-68
2021/01/08 06:28:46;;;;;;;27.88;10.88;;;0.30;98.60;;;;;;5080166;28;20020;-68
2021/01/08 06:31:23;;;;;;;32.58;11.80;;;0.30;98.50;;;;;;5075957;28;20282;-67
2021/01/08 06:33:59;;;;;;;38.90;11.77;;;0.30;98.50;;;;;;5085566;28;20028;-68
2021/01/08 06:36:27;;;;;;;35.97;11.15;;;0.30;98.50;;;;;;5087605;28;20055;-66
2021/01/08 06:39:06;;;;;;;33.72;11.45;;;0.30;98.50;;;;;;5086917;28;20020;-67
2021/01/08 06:41:32;;;;;;;43.17;11.75;;;0.30;98.50;;;;;;5076246;28;20490;-67
2021/01/08 06:44:01;;;;;;;34.85;11.98;;;0.30;98.40;;;;;;5081210;28;20077;-66
2021/01/08 06:46:35;;;;;;;44.10;12.43;;;0.30;98.40;;;;;;5083009;28;20556;-67
2021/01/08 06:49:04;;;;;;;61.15;13.65;;;0.30;98.40;;;;;;5078101;28;20454;-67
2021/01/08 06:51:32;;;;;;;47.92;13.07;;;0.30;98.40;;;;;;5063057;28;20020;-67
2021/01/08 06:54:00;;;;;;;52.50;13.95;;;0.30;98.40;;;;;;5081914;28;20166;-67
2021/01/08 06:56:33;;;;;;;43.47;14.05;;;0.30;98.40;;;;;;5085265;28;20439;-68
2021/01/08 06:59:00;;;;;;;44.13;14.15;;;0.30;98.40;;;;;;5082235;28;20047;-65
2021/01/08 07:01:39;;;;;;;42.35;12.75;;;0.30;98.40;;;;;;5081870;28;20020;-65
2021/01/08 07:04:06;;;;;;;39.38;14.23;;;0.30;98.40;;;;;;5082449;28;20394;-65
2021/01/08 07:06:36;;;;;;;42.42;13.38;;;0.20;98.30;;;;;;5084327;28;20028;-66
2021/01/08 07:09:05;;;;;;;36.83;13.77;;;0.30;98.30;;;;;;5084143;28;20115;-66
2021/01/08 07:11:31;;;;;;;40.58;13.93;;;0.30;98.40;;;;;;5084196;28;20093;-66
2021/01/08 07:14:11;;;;;;;35.70;12.57;;;0.20;98.30;;;;;;5078727;28;20036;-66
2021/01/08 07:16:47;;;;;;;38.83;13.43;;;0.20;98.30;;;;;;5081159;28;20051;-66
2021/01/08 07:19:15;;;;;;;30.52;11.60;;;0.30;98.30;;;;;;5058436;28;20486;-66
2021/01/08 07:21:47;;;;;;;37.97;13.38;;;0.20;98.30;;;;;;5077072;28;20032;-66
2021/01/08 07:24:14;;;;;;;40.05;14.05;;;0.20;98.30;;;;;;5073559;28;20544;-66
2021/01/08 07:26:40;;;;;;;38.65;13.95;;;0.30;98.30;;;;;;5065066;28;20040;-66
2021/01/08 07:29:08;;;;;;;32.95;14.25;;;0.30;98.30;;;;;;5084985;28;20027;-66
2021/01/08 07:31:35;;;;;;;32.47;12.68;;;0.30;98.30;;;;;;5068743;28;20030;-66
2021/01/08 07:34:03;;;;;;;35.65;14.63;;;0.30;98.30;;;;;;5085835;28;20028;-66
2021/01/08 07:36:30;;;;;;;40.75;17.83;;;0.30;98.30;;;;;;5088057;28;20058;-66
2021/01/08 07:38:56;;;;;;;51.38;21.70;;;0.30;98.20;;;;;;5077275;28;20546;-66
2021/01/08 07:41:39;;;;;;;57.47;29.73;;;0.30;98.20;;;;;;5084434;28;20119;-65
2021/01/08 07:44:32;;;;;;;46.42;18.50;;;0.40;98.30;;;;;;5079356;28;20611;-65
2021/01/08 07:47:25;;;;;;;42.92;14.43;;;0.40;98.20;;;;;;5072828;28;20044;-65
2021/01/08 07:50:06;;;;;;;47.95;18.00;;;0.30;98.20;;;;;;5081575;28;20013;-66
2021/01/08 07:52:37;;;;;;;41.22;16.83;;;0.40;98.20;;;;;;5078833;28;20566;-66
2021/01/08 07:55:03;;;;;;;56.78;18.08;;;0.40;98.20;;;;;;5083463;28;20082;-65
2021/01/08 07:57:29;;;;;;;52.42;17.45;;;0.40;98.20;;;;;;5077802;28;20031;-65
2021/01/08 07:59:55;;;;;;;53.13;20.38;;;0.40;98.20;;;;;;5086938;28;20027;-66
2021/01/08 08:02:20;;;;;;;44.90;17.77;;;0.40;98.20;;;;;;5089705;28;20040;-65
2021/01/08 08:04:48;;;;;;;53.33;17.92;;;0.40;98.20;;;;;;5084081;28;20039;-66
2021/01/08 08:07:14;;;;;;;52.83;18.52;;;0.40;98.20;;;;;;5084597;28;20445;-66
2021/01/08 08:09:39;;;;;;;56.03;18.15;;;0.40;98.20;;;;;;5086986;28;20398;-66
2021/01/08 08:12:10;;;;;;;54.53;18.45;;;0.50;98.20;;;;;;5084477;28;20021;-66
2021/01/08 08:14:36;;;;;;;42.97;16.38;;;0.50;98.20;;;;;;5073495;28;20252;-66
2021/01/08 08:17:01;;;;;;;50.45;17.65;;;0.50;98.20;;;;;;5086914;28;20089;-66
2021/01/08 08:19:34;;;;;;;47.45;17.23;;;0.50;98.30;;;;;;5073375;28;20402;-66
2021/01/08 08:22:00;;;;;;;45.28;16.00;;;0.50;98.30;;;;;;5087042;28;20028;-66
2021/01/08 08:24:28;;;;;;;41.97;16.58;;;0.50;98.30;;;;;;5089737;28;20024;-66
2021/01/08 08:26:53;;;;;;;43.72;18.38;;;0.50;98.30;;;;;;5091103;28;20028;-66
2021/01/08 08:29:19;;;;;;;40.00;16.17;;;0.50;98.20;;;;;;5089209;28;20024;-66
2021/01/08 08:31:50;;;;;;;41.40;15.85;;;0.60;98.20;;;;;;5087980;28;20036;-66
2021/01/08 08:34:28;;;;;;;39.00;16.73;;;0.60;98.20;;;;;;5089022;28;20583;-66
2021/01/08 08:36:53;;;;;;;41.65;15.77;;;0.60;98.20;;;;;;5091045;28;20048;-65
2021/01/08 08:39:19;;;;;;;38.63;15.30;;;0.60;98.20;;;;;;5087478;28;20031;-66
2021/01/08 08:41:48;;;;;;;35.03;15.60;;;0.70;98.20;;;;;;5088307;28;20032;-66
2021/01/08 08:44:18;;;;;;;32.97;14.93;;;0.70;98.10;;;;;;5079521;28;20024;-66
2021/01/08 08:46:50;;;;;;;44.00;16.25;;;0.70;98.10;;;;;;5087536;28;20028;-66
2021/01/08 08:49:21;;;;;;;32.47;15.52;;;0.70;98.10;;;;;;5085088;28;20395;-65
2021/01/08 08:51:50;;;;;;;36.95;16.58;;;0.70;98.00;;;;;;5079349;28;20031;-66
2021/01/08 08:54:17;;;;;;;32.00;15.32;;;0.70;97.90;;;;;;5079320;28;20032;-66
2021/01/08 08:56:57;;;;;;;37.92;16.48;;;0.70;97.90;;;;;;5083373;28;20032;-68
2021/01/08 08:59:44;;;;;;;36.30;16.50;;;0.70;97.90;;;;;;5084210;28;20077;-66
2021/01/08 09:02:10;;;;;;;33.08;15.55;;;0.70;97.80;;;;;;5076262;28;20028;-66
2021/01/08 09:04:49;;;;;;;30.75;15.30;;;0.70;97.70;;;;;;5088454;28;20532;-66
2021/01/08 09:07:19;;;;;;;39.85;15.38;;;0.80;97.80;;;;;;5089761;28;20032;-66
2021/01/08 09:09:47;;;;;;;31.90;16.00;;;0.80;97.70;;;;;;5084983;28;20020;-66
2021/01/08 09:12:16;;;;;;;30.50;15.32;;;0.80;97.70;;;;;;5090104;28;20032;-66
2021/01/08 09:14:45;;;;;;;28.60;14.60;;;0.70;97.50;;;;;;5087251;28;20058;-66
2021/01/08 09:17:16;;;;;;;28.63;14.15;;;0.70;97.60;;;;;;5088239;28;20069;-66
2021/01/08 09:20:02;;;;;;;27.92;13.88;;;0.80;97.50;;;;;;5084987;28;20016;-66
2021/01/08 09:22:33;;;;;;;29.80;14.10;;;0.80;97.50;;;;;;5086825;28;20024;-66
2021/01/08 09:25:03;;;;;;;27.63;13.95;;;0.90;97.50;;;;;;5081555;28;20035;-66
2021/01/08 09:27:28;;;;;;;25.80;14.20;;;0.80;97.20;;;;;;5080507;28;20473;-66
2021/01/08 09:30:05;;;;;;;27.48;14.35;;;0.80;97.10;;;;;;5088948;28;20032;-66
2021/01/08 09:32:32;;;;;;;26.67;13.10;;;0.90;97.00;;;;;;5089488;28;20052;-65
2021/01/08 09:35:00;;;;;;;26.30;13.75;;;0.90;97.10;;;;;;5080112;28;20705;-66
2021/01/08 09:37:33;;;;;;;27.02;13.48;;;0.90;97.00;;;;;;5076105;28;20458;-66
2021/01/08 09:39:59;;;;;;;30.17;13.63;;;0.90;96.80;;;;;;5085415;28;20382;-66
2021/01/08 09:42:25;;;;;;;30.85;14.00;;;1.00;96.60;;;;;;5086511;28;20032;-66
2021/01/08 09:44:51;;;;;;;30.40;15.05;;;1.00;96.80;;;;;;5087813;28;20020;-66
2021/01/08 09:47:16;;;;;;;26.80;13.40;;;1.10;96.80;;;;;;5089895;28;20130;-66
2021/01/08 09:49:43;;;;;;;25.63;13.98;;;1.10;96.80;;;;;;5087565;28;20066;-66
2021/01/08 09:52:11;;;;;;;27.45;13.93;;;1.10;96.80;;;;;;5085384;28;20036;-66
2021/01/08 09:54:46;;;;;;;26.98;14.18;;;1.20;96.80;;;;;;5084861;28;20028;-66
2021/01/08 09:57:35;;;;;;;27.02;14.45;;;1.20;96.80;;;;;;5071757;28;20024;-66
2021/01/08 10:00:07;;;;;;;25.48;14.60;;;1.20;96.80;;;;;;5085862;28;20501;-66
2021/01/08 10:02:49;;;;;;;26.83;14.18;;;1.10;96.60;;;;;;5086233;28;20040;-66
2021/01/08 10:05:20;;;;;;;33.05;14.18;;;1.10;96.80;;;;;;5079645;28;20024;-66
2021/01/08 10:07:47;;;;;;;25.83;14.57;;;1.20;96.90;;;;;;5085334;28;20035;-66
2021/01/08 10:10:14;;;;;;;29.35;14.25;;;1.10;96.80;;;;;;5079917;28;20097;-66
2021/01/08 10:12:48;;;;;;;31.83;15.85;;;1.20;96.90;;;;;;5077513;28;20127;-66
2021/01/08 10:15:15;;;;;;;30.10;15.27;;;1.20;96.80;;;;;;5082498;28;20029;-66
2021/01/08 10:18:26;;;;;;;27.23;14.68;;;1.20;96.80;;;;;;5082108;28;20028;-66
2021/01/08 10:20:53;;;;;;;30.92;14.35;;;1.20;96.80;;;;;;5071612;28;20040;-66
2021/01/08 10:23:20;;;;;;;23.65;12.77;;;1.20;96.60;;;;;;5068830;28;20092;-66
2021/01/08 10:25:46;;;;;;;27.02;15.27;;;1.20;96.70;;;;;;5081446;28;20401;-66
2021/01/08 10:28:14;;;;;;;28.38;15.55;;;1.30;96.70;;;;;;5085328;28;20394;-66
2021/01/08 10:30:40;;;;;;;24.65;14.52;;;1.30;96.70;;;;;;5077182;28;20016;-66
2021/01/08 10:33:07;;;;;;;27.73;14.02;;;1.20;96.00;;;;;;5074317;28;20349;-66
2021/01/08 10:35:34;;;;;;;22.40;12.30;;;1.30;96.30;;;;;;5073706;28;20562;-66
2021/01/08 10:37:59;;;;;;;22.13;12.75;;;1.40;96.10;;;;;;5085165;28;20105;-66
2021/01/08 10:40:25;;;;;;;26.80;12.90;;;1.40;96.00;;;;;;5080937;28;20016;-66
2021/01/08 10:42:52;;;;;;;21.70;12.90;;;1.40;95.90;;;;;;5086976;28;20037;-66
2021/01/08 10:45:18;;;;;;;23.83;12.45;;;1.40;96.00;;;;;;5080588;28;20032;-66
2021/01/08 10:47:44;;;;;;;20.58;12.13;;;1.40;95.80;;;;;;5076897;28;20428;-66
2021/01/08 10:50:11;;;;;;;22.83;12.63;;;1.50;95.80;;;;;;5077876;28;20050;-66
2021/01/08 10:52:37;;;;;;;23.45;12.02;;;1.40;95.50;;;;;;5070215;28;20032;-66
2021/01/08 10:55:05;;;;;;;22.17;11.57;;;1.40;95.50;;;;;;5072974;28;20024;-66
2021/01/08 10:57:31;;;;;;;21.20;11.38;;;1.40;95.10;;;;;;5089015;28;20024;-66
2021/01/08 10:59:56;;;;;;;21.17;11.35;;;1.40;95.00;;;;;;5084293;28;20027;-65
2021/01/08 11:02:22;;;;;;;21.60;12.50;;;1.40;95.00;;;;;;5084648;28;20398;-67
2021/01/08 11:04:47;;;;;;;18.50;11.05;;;1.40;95.00;;;;;;5085141;28;20024;-68
2021/01/08 11:07:13;;;;;;;17.65;10.40;;;1.50;95.00;;;;;;5085731;28;20030;-67
2021/01/08 11:09:38;;;;;;;22.40;11.63;;;1.50;94.90;;;;;;5083562;28;20020;-67
2021/01/08 11:12:05;;;;;;;19.27;10.15;;;1.50;94.80;;;;;;5088477;28;20027;-67
2021/01/08 11:14:31;;;;;;;17.58;11.00;;;1.40;94.40;;;;;;5087043;28;20098;-67
2021/01/08 11:16:57;;;;;;;17.02;10.25;;;1.40;94.60;;;;;;5086847;28;20040;-67
2021/01/08 11:19:22;;;;;;;17.55;10.80;;;1.50;94.80;;;;;;5061897;28;20063;-68
2021/01/08 11:21:54;;;;;;;15.50;9.80;;;1.40;94.60;;;;;;5070069;28;20591;-67
2021/01/08 11:24:20;;;;;;;20.48;11.23;;;1.30;94.50;;;;;;5052721;28;20402;-68
2021/01/08 11:26:46;;;;;;;17.27;11.07;;;1.40;94.60;;;;;;5066333;28;20035;-67
2021/01/08 11:29:11;;;;;;;18.02;10.27;;;1.40;94.70;;;;;;5084430;28;20028;-67
2021/01/08 11:31:37;;;;;;;18.50;10.52;;;1.40;94.30;;;;;;5061027;28;20043;-68
2021/01/08 11:34:08;;;;;;;19.00;10.80;;;1.50;94.80;;;;;;5083328;28;20039;-68
2021/01/08 11:36:34;;;;;;;18.27;10.85;;;1.60;95.10;;;;;;5083058;28;20028;-68
2021/01/08 11:39:00;;;;;;;19.80;11.13;;;1.60;94.70;;;;;;5078557;28;20497;-68
2021/01/08 11:41:26;;;;;;;18.88;11.10;;;1.60;94.90;;;;;;5078928;28;20024;-66
2021/01/08 11:43:52;;;;;;;17.38;10.73;;;1.60;94.90;;;;;;5078850;28;20040;-65
2021/01/08 11:46:18;;;;;;;19.33;11.05;;;1.60;94.80;;;;;;5080760;28;20020;-66
2021/01/08 11:48:45;;;;;;;18.60;11.02;;;1.60;94.70;;;;;;5080620;28;20367;-66
2021/01/08 11:51:14;;;;;;;17.25;11.35;;;1.60;94.90;;;;;;5084810;28;20032;-66
2021/01/08 11:53:43;;;;;;;15.73;10.40;;;1.50;94.70;;;;;;5082779;28;20387;-66
2021/01/08 11:56:10;;;;;;;19.13;11.93;;;1.50;94.80;;;;;;5082683;28;20036;-65
2021/01/08 11:58:37;;;;;;;19.58;11.77;;;1.50;94.90;;;;;;5064186;28;20039;-66
2021/01/08 12:01:04;;;;;;;20.58;10.95;;;1.60;95.00;;;;;;5077540;28;20032;-68
2021/01/08 12:03:30;;;;;;;17.02;9.63;;;1.50;94.50;;;;;;5080520;28;20024;-68
2021/01/08 12:05:56;;;;;;;17.60;10.55;;;1.40;94.00;;;;;;5080067;28;20390;-66
2021/01/08 12:08:21;;;;;;;17.30;9.82;;;1.40;94.40;;;;;;5082822;28;20482;-67
2021/01/08 12:10:47;;;;;;;18.95;10.93;;;1.40;94.60;;;;;;5079980;28;20035;-67
2021/01/08 12:13:12;;;;;;;18.75;10.60;;;1.40;94.40;;;;;;5076892;28;20601;-68
2021/01/08 12:15:38;;;;;;;15.98;10.32;;;1.30;94.70;;;;;;5080198;28;20121;-67
2021/01/08 12:18:04;;;;;;;20.08;11.80;;;1.40;94.70;;;;;;5081188;28;20020;-67
2021/01/08 12:20:29;;;;;;;22.05;11.02;;;1.40;94.80;;;;;;5082147;28;20161;-67
2021/01/08 12:22:55;;;;;;;16.48;10.90;;;1.30;94.70;;;;;;5085915;28;20035;-68
2021/01/08 12:25:21;;;;;;;21.48;11.02;;;1.30;94.80;;;;;;5080021;22;20605;-64
2021/01/08 12:27:47;;;;;;;20.23;11.73;;;1.40;95.10;;;;;;5044356;28;20043;-66
2021/01/08 12:30:13;;;;;;;21.67;11.43;;;1.40;95.00;;;;;;5042363;28;20045;-66
2021/01/08 12:32:39;;;;;;;17.50;11.40;;;1.40;94.90;;;;;;5046268;28;20021;-66
2021/01/08 12:35:05;;;;;;;17.17;11.18;;;1.40;94.90;;;;;;5038027;28;20674;-67
2021/01/08 12:37:31;;;;;;;22.35;11.63;;;1.50;95.00;;;;;;5027203;28;20029;-67
2021/01/08 12:39:56;;;;;;;19.27;10.50;;;1.50;95.00;;;;;;5024985;28;20497;-66
2021/01/08 12:42:22;;;;;;;16.63;10.40;;;1.50;95.00;;;;;;5027998;28;20057;-66
2021/01/08 12:44:47;;;;;;;18.45;10.43;;;1.50;94.90;;;;;;5026909;28;20017;-66